createdAt,value
2023-05-25T00:01:00.538Z,98019.41
2023-05-25T00:03:31.608Z,98022.88
2023-05-25T00:06:15.150Z,98010.06
2023-05-25T00:08:42.935Z,98014.00
2023-05-25T00:11:10.832Z,98029.59
2023-05-25T00:13:38.611Z,98022.34
2023-05-25T00:16:07.440Z,98015.41
2023-05-25T00:18:37.957Z,98022.22
2023-05-25T00:21:07.341Z,98012.47
2023-05-25T00:23:35.230Z,98001.53
2023-05-25T00:26:04.318Z,98019.28
2023-05-25T00:28:32.158Z,98014.97
2023-05-25T00:31:00.107Z,98010.56
2023-05-25T00:33:28.063Z,98012.34
2023-05-25T00:35:57.397Z,98001.63
2023-05-25T00:38:25.411Z,98006.03
2023-05-25T00:40:57.038Z,98008.72
2023-05-25T00:43:25.062Z,98005.31
2023-05-25T00:45:52.927Z,98006.25
2023-05-25T00:48:20.835Z,98008.00
2023-05-25T00:50:48.646Z,98010.63
2023-05-25T00:53:17.979Z,98012.41
2023-05-25T00:55:47.377Z,98004.59
2023-05-25T00:58:18.485Z,98000.22
2023-05-25T01:00:46.737Z,98007.09
2023-05-25T01:03:18.024Z,98010.63
2023-05-25T01:05:48.201Z,98000.22
2023-05-25T01:08:18.721Z,98004.69
2023-05-25T01:10:50.241Z,98005.56
2023-05-25T01:13:19.290Z,98000.22
2023-05-25T01:15:47.650Z,97998.59
2023-05-25T01:18:16.100Z,98006.47
2023-05-25T01:20:58.630Z,98003.91
2023-05-25T01:23:31.126Z,98003.84
2023-05-25T01:26:02.433Z,98003.84
2023-05-25T01:28:32.226Z,98001.06
2023-05-25T01:31:00.275Z,98008.09
2023-05-25T01:33:28.827Z,98005.63
2023-05-25T01:35:57.993Z,98003.84
2023-05-25T01:38:25.775Z,97996.03
2023-05-25T01:40:53.517Z,98007.31
2023-05-25T01:43:21.260Z,98011.56
2023-05-25T01:45:49.311Z,98012.41
2023-05-25T01:48:22.522Z,98010.56
2023-05-25T01:50:57.647Z,98016.66
2023-05-25T01:53:29.550Z,98014.69
2023-05-25T01:56:01.071Z,98016.41
2023-05-25T01:58:29.812Z,98006.88
2023-05-25T02:00:58.209Z,98005.06
2023-05-25T02:03:26.177Z,98010.16
2023-05-25T02:05:53.960Z,98005.66
2023-05-25T02:08:22.188Z,98015.31
2023-05-25T02:10:51.437Z,98010.22
2023-05-25T02:13:19.414Z,98012.69
2023-05-25T02:15:47.285Z,98006.75
2023-05-25T02:18:17.805Z,98008.59
2023-05-25T02:20:45.702Z,98006.88
2023-05-25T02:23:13.665Z,98010.06
2023-05-25T02:25:42.901Z,98018.78
2023-05-25T02:28:12.322Z,98009.13
2023-05-25T02:30:40.430Z,98009.13
2023-05-25T02:33:08.230Z,98008.28
2023-05-25T02:35:36.218Z,98011.09
2023-05-25T02:38:04.051Z,98007.59
2023-05-25T02:40:31.866Z,98002.28
2023-05-25T02:42:59.648Z,98004.06
2023-05-25T02:45:28.849Z,97998.66
2023-05-25T02:47:56.717Z,97998.50
2023-05-25T02:50:24.708Z,98001.88
2023-05-25T02:52:52.512Z,98004.38
2023-05-25T02:55:20.388Z,97996.63
2023-05-25T02:57:48.485Z,98001.88
2023-05-25T03:00:17.246Z,97993.19
2023-05-25T03:02:48.933Z,97992.41
2023-05-25T03:05:17.230Z,97992.47
2023-05-25T03:07:45.109Z,97991.69
2023-05-25T03:10:13.061Z,97995.09
2023-05-25T03:12:40.874Z,97992.47
2023-05-25T03:15:13.163Z,98007.31
2023-05-25T03:17:41.087Z,97998.56
2023-05-25T03:20:11.966Z,98004.69
2023-05-25T03:22:39.849Z,98019.44
2023-05-25T03:25:08.677Z,98016.72
2023-05-25T03:27:36.882Z,98015.78
2023-05-25T03:30:05.273Z,98014.81
2023-05-25T03:32:34.035Z,98009.38
2023-05-25T03:35:01.915Z,98013.66
2023-05-25T03:37:31.149Z,98013.66
2023-05-25T03:39:58.967Z,98017.19
2023-05-25T03:42:26.789Z,98013.56
2023-05-25T03:44:54.589Z,98017.06
2023-05-25T03:47:22.391Z,98022.13
2023-05-25T03:49:50.181Z,98015.88
2023-05-25T03:52:18.068Z,98022.91
2023-05-25T03:54:47.236Z,98017.72
2023-05-25T03:57:15.152Z,98023.84
2023-05-25T03:59:42.942Z,98032.50
2023-05-25T04:02:10.786Z,98025.69
2023-05-25T04:04:41.923Z,98042.22
2023-05-25T04:07:09.858Z,98023.00
2023-05-25T04:09:37.697Z,98033.34
2023-05-25T04:12:07.514Z,98034.09
2023-05-25T04:14:35.310Z,98042.63
2023-05-25T04:17:03.138Z,98046.97
2023-05-25T04:19:30.954Z,98059.06
2023-05-25T04:21:58.736Z,98059.78
2023-05-25T04:24:26.545Z,98062.31
2023-05-25T04:26:56.787Z,98060.47
2023-05-25T04:29:25.993Z,98055.06
2023-05-25T04:31:54.647Z,98058.38
2023-05-25T04:34:23.372Z,98058.00
2023-05-25T04:36:51.237Z,98070.81
2023-05-25T04:39:19.087Z,98070.44
2023-05-25T04:41:48.342Z,98067.41
2023-05-25T04:44:16.143Z,98068.03
2023-05-25T04:46:45.326Z,98075.59
2023-05-25T04:49:13.609Z,98074.53
2023-05-25T04:51:41.461Z,98078.59
2023-05-25T04:54:09.665Z,98093.13
2023-05-25T04:56:37.473Z,98084.06
2023-05-25T04:59:05.291Z,98093.53
2023-05-25T05:01:34.340Z,98091.56
2023-05-25T05:04:03.611Z,98099.53
2023-05-25T05:06:32.265Z,98094.13
2023-05-25T05:09:00.361Z,98098.38
2023-05-25T05:11:28.805Z,98109.91
2023-05-25T05:13:56.749Z,98102.41
2023-05-25T05:16:24.631Z,98108.56
2023-05-25T05:18:52.449Z,98122.47
2023-05-25T05:21:23.411Z,98111.88
2023-05-25T05:23:51.325Z,98118.69
2023-05-25T05:26:19.349Z,98118.00
2023-05-25T05:28:47.163Z,98117.22
2023-05-25T05:31:17.321Z,98130.16
2023-05-25T05:33:45.178Z,98131.53
2023-05-25T05:36:13.072Z,98128.31
2023-05-25T05:38:42.612Z,98129.44
2023-05-25T05:41:14.194Z,98132.19
2023-05-25T05:43:42.946Z,98135.03
2023-05-25T05:46:10.903Z,98135.38
2023-05-25T05:48:38.811Z,98131.91
2023-05-25T05:51:07.281Z,98139.94
2023-05-25T05:53:35.641Z,98146.16
2023-05-25T05:56:04.928Z,98140.94
2023-05-25T05:58:33.324Z,98142.69
2023-05-25T06:01:01.982Z,98148.97
2023-05-25T06:03:29.831Z,98148.25
2023-05-25T06:05:57.740Z,98147.69
2023-05-25T06:08:26.202Z,98151.75
2023-05-25T06:10:54.049Z,98143.56
2023-05-25T06:13:23.284Z,98145.34
2023-05-25T06:15:51.140Z,98140.75
2023-05-25T06:18:18.975Z,98149.06
2023-05-25T06:20:46.945Z,98151.84
2023-05-25T06:23:14.984Z,98158.53
2023-05-25T06:25:42.986Z,98151.66
2023-05-25T06:28:11.018Z,98160.25
2023-05-25T06:30:40.228Z,98168.72
2023-05-25T06:33:08.697Z,98154.78
2023-05-25T06:35:36.572Z,98178.03
2023-05-25T06:38:04.538Z,98183.47
2023-05-25T06:40:32.515Z,98144.84
2023-05-25T06:43:00.462Z,98176.47
2023-05-25T06:45:28.321Z,98185.81
2023-05-25T06:47:57.639Z,98183.16
2023-05-25T06:50:25.833Z,98186.97
2023-05-25T06:52:53.644Z,98187.75
2023-05-25T06:55:21.482Z,98183.81
2023-05-25T06:57:49.273Z,98182.38
2023-05-25T07:00:18.374Z,98174.69
2023-05-25T07:02:46.261Z,98177.75
2023-05-25T07:05:15.627Z,98173.28
2023-05-25T07:07:43.586Z,98177.69
2023-05-25T07:10:11.726Z,98166.47
2023-05-25T07:12:39.529Z,98176.47
2023-05-25T07:15:08.748Z,98173.53
2023-05-25T07:17:37.269Z,98174.06
2023-05-25T07:20:06.572Z,98169.41
2023-05-25T07:22:35.895Z,98170.31
2023-05-25T07:25:03.928Z,98170.66
2023-05-25T07:27:33.796Z,98178.66
2023-05-25T07:30:01.706Z,98174.25
2023-05-25T07:32:29.609Z,98183.25
2023-05-25T07:34:57.430Z,98190.47
2023-05-25T07:37:25.305Z,98184.66
2023-05-25T07:39:54.470Z,98179.22
2023-05-25T07:42:22.322Z,98185.06
2023-05-25T07:44:50.427Z,98182.53
2023-05-25T07:47:18.266Z,98175.53
2023-05-25T07:49:46.105Z,98178.31
2023-05-25T07:52:14.057Z,98179.81
2023-05-25T07:54:41.932Z,98177.91
2023-05-25T07:57:11.156Z,98179.78
2023-05-25T07:59:38.999Z,98185.94
2023-05-25T08:02:06.894Z,98188.47
2023-05-25T08:04:35.646Z,98180.50
2023-05-25T08:07:03.873Z,98178.91
2023-05-25T08:09:31.711Z,98174.44
2023-05-25T08:12:21.327Z,98181.84
2023-05-25T08:14:49.174Z,98190.34
2023-05-25T08:17:17.103Z,98185.06
2023-05-25T08:19:45.111Z,98181.09
2023-05-25T08:22:12.904Z,98179.22
2023-05-25T08:24:41.353Z,98183.59
2023-05-25T08:27:09.327Z,98178.13
2023-05-25T08:29:37.205Z,98181.13
2023-05-25T08:32:06.877Z,98181.56
2023-05-25T08:34:34.781Z,98180.25
2023-05-25T08:37:02.595Z,98182.00
2023-05-25T08:39:31.843Z,98175.72
2023-05-25T08:42:01.141Z,98166.91
2023-05-25T08:44:29.386Z,98183.22
2023-05-25T08:46:58.192Z,98181.03
2023-05-25T08:49:28.660Z,98187.06
2023-05-25T08:51:56.734Z,98194.78
2023-05-25T08:54:27.418Z,98190.72
2023-05-25T08:56:58.178Z,98186.59
2023-05-25T08:59:31.034Z,98186.38
2023-05-25T09:02:05.722Z,98176.72
2023-05-25T09:04:36.107Z,98188.78
2023-05-25T09:07:10.535Z,98181.72
2023-05-25T09:09:39.658Z,98186.97
2023-05-25T09:12:08.652Z,98187.81
2023-05-25T09:14:37.698Z,98196.91
2023-05-25T09:17:06.132Z,98164.22
2023-05-25T09:19:36.791Z,98194.19
2023-05-25T09:22:15.056Z,98195.09
2023-05-25T09:24:44.577Z,98192.84
2023-05-25T09:27:13.295Z,98184.69
2023-05-25T09:29:41.118Z,98192.84
2023-05-25T09:32:09.465Z,98200.84
2023-05-25T09:34:38.667Z,98201.53
2023-05-25T09:37:12.754Z,98206.69
2023-05-25T09:39:41.806Z,98200.81
2023-05-25T09:42:09.926Z,98203.31
2023-05-25T09:44:37.779Z,98201.16
2023-05-25T09:47:06.513Z,98203.53
2023-05-25T09:49:34.480Z,98171.44
2023-05-25T09:52:03.977Z,98202.97
2023-05-25T09:54:32.144Z,98198.22
2023-05-25T09:57:04.173Z,98194.31
2023-05-25T09:59:32.200Z,98199.75
2023-05-25T10:02:00.862Z,98202.50
2023-05-25T10:04:32.779Z,98200.31
2023-05-25T10:07:03.278Z,98203.09
2023-05-25T10:09:31.609Z,98207.34
2023-05-25T10:11:59.753Z,98208.03
2023-05-25T10:14:29.281Z,98212.97
2023-05-25T10:17:00.594Z,98214.78
2023-05-25T10:19:33.373Z,98209.00
2023-05-25T10:22:08.211Z,98201.38
2023-05-25T10:24:40.254Z,98202.75
2023-05-25T10:27:22.490Z,98204.28
2023-05-25T10:29:56.434Z,98206.84
2023-05-25T10:32:24.456Z,98204.50
2023-05-25T10:34:53.904Z,98208.03
2023-05-25T10:37:24.641Z,98213.69
2023-05-25T10:39:53.144Z,98203.47
2023-05-25T10:42:21.101Z,98198.09
2023-05-25T10:44:49.046Z,98194.47
2023-05-25T10:47:17.606Z,98202.28
2023-05-25T10:49:56.025Z,98200.81
2023-05-25T10:52:28.636Z,98203.84
2023-05-25T10:54:57.239Z,98194.16
2023-05-25T10:57:26.124Z,98197.34
2023-05-25T10:59:59.988Z,98200.78
2023-05-25T11:02:29.195Z,98191.78
2023-05-25T11:05:31.909Z,98199.97
2023-05-25T11:08:01.993Z,98197.72
2023-05-25T11:10:48.341Z,98193.81
2023-05-25T11:13:38.096Z,98201.13
2023-05-25T11:16:18.706Z,98196.25
2023-05-25T11:18:47.429Z,98190.22
2023-05-25T11:21:16.812Z,98179.88
2023-05-25T11:23:58.724Z,98184.66
2023-05-25T11:26:27.936Z,98180.28
2023-05-25T11:28:56.465Z,98182.31
2023-05-25T11:31:36.447Z,98169.63
2023-05-25T11:34:06.931Z,98172.75
2023-05-25T11:36:37.132Z,98180.84
2023-05-25T11:39:17.086Z,98163.44
2023-05-25T11:41:50.078Z,98168.81
2023-05-25T11:44:27.298Z,98165.03
2023-05-25T11:46:57.219Z,98160.94
2023-05-25T11:49:25.496Z,98161.78
2023-05-25T11:51:53.964Z,98157.06
2023-05-25T11:54:27.305Z,98162.88
2023-05-25T11:56:57.449Z,98164.28
2023-05-25T11:59:27.227Z,98133.00
2023-05-25T12:02:00.633Z,98159.72
2023-05-25T12:04:29.170Z,98154.50
2023-05-25T12:07:03.014Z,98155.31
2023-05-25T12:09:32.291Z,98150.00
2023-05-25T12:12:00.852Z,98155.19
2023-05-25T12:14:28.678Z,98145.78
2023-05-25T12:16:57.836Z,98150.13
2023-05-25T12:19:25.768Z,98146.59
2023-05-25T12:21:53.759Z,98149.47
2023-05-25T12:24:21.596Z,98137.69
2023-05-25T12:26:57.781Z,98142.25
2023-05-25T12:29:26.308Z,98135.47
2023-05-25T12:31:54.226Z,98143.28
2023-05-25T12:34:28.719Z,98144.09
2023-05-25T12:36:57.641Z,98135.25
2023-05-25T12:39:38.979Z,98142.66
2023-05-25T12:42:14.765Z,98140.50
2023-05-25T12:44:43.671Z,98136.91
2023-05-25T12:47:13.000Z,98126.66
2023-05-25T12:49:41.748Z,98142.84
2023-05-25T12:52:10.862Z,98133.09
2023-05-25T12:54:42.325Z,98136.31
2023-05-25T12:57:13.308Z,98133.84
2023-05-25T12:59:42.349Z,98128.03
2023-05-25T13:02:10.471Z,98134.13
2023-05-25T13:04:39.363Z,98134.63
2023-05-25T13:07:08.948Z,98141.91
2023-05-25T13:09:37.042Z,98134.28
2023-05-25T13:12:06.318Z,98139.84
2023-05-25T13:14:36.071Z,98140.03
2023-05-25T13:17:03.863Z,98137.66
2023-05-25T13:19:31.679Z,98139.13
2023-05-25T13:21:59.467Z,98139.38
2023-05-25T13:24:27.494Z,98126.47
2023-05-25T13:26:55.368Z,98130.56
2023-05-25T13:29:23.945Z,98117.63
2023-05-25T13:31:53.187Z,98124.00
2023-05-25T13:34:21.003Z,98121.66
2023-05-25T13:36:48.854Z,98116.69
2023-05-25T13:39:17.000Z,98122.50
2023-05-25T13:41:46.304Z,98122.91
2023-05-25T13:44:17.343Z,98114.75
2023-05-25T13:46:45.705Z,98116.88
2023-05-25T13:49:16.315Z,98114.81
2023-05-25T13:51:44.224Z,98120.91
2023-05-25T13:54:12.840Z,98111.53
2023-05-25T13:56:42.419Z,98115.13
2023-05-25T13:59:10.515Z,98112.63
2023-05-25T14:01:38.411Z,98114.94
2023-05-25T14:04:06.737Z,98118.94
2023-05-25T14:06:36.029Z,98111.09
2023-05-25T14:09:03.967Z,98109.63
2023-05-25T14:11:31.773Z,98106.16
2023-05-25T14:13:59.614Z,98113.38
2023-05-25T14:16:27.654Z,98116.31
2023-05-25T14:18:56.507Z,98107.06
2023-05-25T14:21:24.358Z,98105.88
2023-05-25T14:23:53.628Z,98112.28
2023-05-25T14:26:22.110Z,98100.75
2023-05-25T14:28:50.272Z,98091.41
2023-05-25T14:31:18.162Z,98091.94
2023-05-25T14:33:46.202Z,98096.13
2023-05-25T14:36:14.006Z,98098.75
2023-05-25T14:38:41.883Z,98088.00
2023-05-25T14:41:11.044Z,98086.41
2023-05-25T14:43:38.923Z,98081.34
2023-05-25T14:46:07.415Z,98091.16
2023-05-25T14:48:36.331Z,98096.72
2023-05-25T14:51:04.347Z,98088.63
2023-05-25T14:53:32.741Z,98098.13
2023-05-25T14:56:01.005Z,98095.25
2023-05-25T14:58:32.333Z,98092.00
2023-05-25T15:01:03.214Z,98095.97
2023-05-25T15:03:31.057Z,98095.28
2023-05-25T15:05:58.935Z,98092.06
2023-05-25T15:08:26.822Z,98092.66
2023-05-25T15:10:54.767Z,98097.91
2023-05-25T15:13:22.851Z,98089.78
2023-05-25T15:15:57.237Z,98093.19
2023-05-25T15:18:25.182Z,98088.81
2023-05-25T15:20:53.006Z,98090.03
2023-05-25T15:23:20.782Z,98083.47
2023-05-25T15:25:48.788Z,98087.34
2023-05-25T15:28:16.726Z,98086.53
2023-05-25T15:30:44.576Z,98086.75
2023-05-25T15:33:15.767Z,98084.44
2023-05-25T15:35:43.868Z,98078.66
2023-05-25T15:38:11.915Z,98087.66
2023-05-25T15:40:39.706Z,98083.13
2023-05-25T15:43:07.529Z,98083.63
2023-05-25T15:45:35.378Z,98078.91
2023-05-25T15:48:04.004Z,98073.69
2023-05-25T15:50:33.231Z,98081.03
2023-05-25T15:53:01.066Z,98081.28
2023-05-25T15:55:28.898Z,98081.41
2023-05-25T15:57:56.746Z,98072.91
2023-05-25T16:00:24.589Z,98076.63
2023-05-25T16:02:52.504Z,98075.03
2023-05-25T16:05:20.332Z,98084.53
2023-05-25T16:07:49.511Z,98076.78
2023-05-25T16:10:17.475Z,98073.97
2023-05-25T16:12:45.555Z,98078.19
2023-05-25T16:15:13.347Z,98072.72
2023-05-25T16:17:41.168Z,98069.41
2023-05-25T16:20:10.446Z,98081.16
2023-05-25T16:22:38.282Z,98075.22
2023-05-25T16:25:08.685Z,98073.16
2023-05-25T16:27:36.577Z,98079.63
2023-05-25T16:30:04.928Z,98072.91
2023-05-25T16:32:32.855Z,98073.53
2023-05-25T16:35:01.376Z,98085.28
2023-05-25T16:37:29.210Z,98073.19
2023-05-25T16:39:57.037Z,98071.78
2023-05-25T16:42:26.394Z,98072.91
2023-05-25T16:44:54.352Z,98076.75
2023-05-25T16:47:22.669Z,98070.75
2023-05-25T16:49:50.609Z,98074.28
2023-05-25T16:52:18.757Z,98065.22
2023-05-25T16:54:46.551Z,98064.75
2023-05-25T16:57:14.380Z,98067.28
2023-05-25T16:59:43.809Z,98067.06
2023-05-25T17:02:11.932Z,98070.78
2023-05-25T17:04:42.866Z,98063.72
2023-05-25T17:07:10.666Z,98065.72
2023-05-25T17:09:38.480Z,98062.19
2023-05-25T17:12:06.898Z,98042.19
2023-05-25T17:14:34.828Z,98062.34
2023-05-25T17:17:04.066Z,98069.91
2023-05-25T17:19:31.908Z,98066.09
2023-05-25T17:21:59.741Z,98054.13
2023-05-25T17:24:27.522Z,98049.75
2023-05-25T17:26:55.359Z,98054.13
2023-05-25T17:29:23.238Z,98061.38
2023-05-25T17:31:52.023Z,98048.75
2023-05-25T17:34:21.249Z,98059.69
2023-05-25T17:36:49.185Z,98066.38
2023-05-25T17:39:17.059Z,98060.69
2023-05-25T17:41:46.539Z,98057.81
2023-05-25T17:44:14.530Z,98067.03
2023-05-25T17:46:42.918Z,98069.00
2023-05-25T17:49:10.834Z,98070.56
2023-05-25T17:51:40.018Z,98067.66
2023-05-25T17:54:07.813Z,98062.94
2023-05-25T17:56:35.742Z,98071.41
2023-05-25T17:59:03.596Z,98065.84
2023-05-25T18:01:31.617Z,98070.44
2023-05-25T18:04:00.980Z,98056.41
2023-05-25T18:06:29.418Z,98079.69
2023-05-25T18:08:59.784Z,98068.59
2023-05-25T18:11:28.354Z,98061.78
2023-05-25T18:13:56.172Z,98063.84
2023-05-25T18:16:24.321Z,98050.13
2023-05-25T18:18:52.120Z,98065.91
2023-05-25T18:21:19.901Z,98067.72
2023-05-25T18:23:48.056Z,98069.25
2023-05-25T18:26:17.283Z,98071.84
2023-05-25T18:28:50.750Z,98058.13
2023-05-25T18:31:21.638Z,98078.41
2023-05-25T18:33:49.558Z,98071.50
2023-05-25T18:36:18.767Z,98074.13
2023-05-25T18:38:46.561Z,98078.09
2023-05-25T18:41:14.352Z,98083.31
2023-05-25T18:43:43.554Z,98085.94
2023-05-25T18:46:11.340Z,98085.81
2023-05-25T18:48:39.157Z,98091.34
2023-05-25T18:51:13.209Z,98087.84
2023-05-25T18:53:41.766Z,98081.31
2023-05-25T18:56:09.647Z,98088.56
2023-05-25T18:58:38.145Z,98095.63
2023-05-25T19:01:08.087Z,98107.28
2023-05-25T19:03:36.321Z,98107.72
2023-05-25T19:06:05.522Z,98106.28
2023-05-25T19:08:33.348Z,98096.00
2023-05-25T19:11:01.248Z,98095.22
2023-05-25T19:13:32.094Z,98106.16
2023-05-25T19:16:01.137Z,98108.78
2023-05-25T19:18:30.475Z,98104.94
2023-05-25T19:20:59.436Z,98110.84
2023-05-25T19:23:27.195Z,98103.06
2023-05-25T19:25:54.994Z,98110.28
2023-05-25T19:28:22.861Z,98114.06
2023-05-25T19:30:50.993Z,98123.97
2023-05-25T19:33:19.937Z,98096.03
2023-05-25T19:35:49.115Z,98114.72
2023-05-25T19:38:16.994Z,98111.16
2023-05-25T19:40:49.163Z,98103.47
2023-05-25T19:43:17.032Z,98113.72
2023-05-25T19:45:47.009Z,98124.47
2023-05-25T19:48:15.115Z,98133.50
2023-05-25T19:50:42.936Z,98129.00
2023-05-25T19:53:12.097Z,98137.88
2023-05-25T19:55:39.919Z,98133.69
2023-05-25T19:58:08.067Z,98139.44
2023-05-25T20:00:39.353Z,98139.91
2023-05-25T20:03:07.295Z,98123.41
2023-05-25T20:05:35.629Z,98156.75
2023-05-25T20:08:03.792Z,98139.19
2023-05-25T20:10:38.714Z,98159.16
2023-05-25T20:13:07.381Z,98150.50
2023-05-25T20:15:38.680Z,98156.56
2023-05-25T20:18:06.640Z,98148.28
2023-05-25T20:20:34.568Z,98157.75
2023-05-25T20:23:02.907Z,98158.28
2023-05-25T20:25:32.345Z,98145.47
2023-05-25T20:28:00.152Z,98149.16
2023-05-25T20:30:28.602Z,98159.97
2023-05-25T20:32:56.572Z,98150.97
2023-05-25T20:35:24.678Z,98154.06
2023-05-25T20:37:52.526Z,98154.69
2023-05-25T20:40:21.028Z,98146.22
2023-05-25T20:42:52.632Z,98154.47
2023-05-25T20:45:20.548Z,98159.88
2023-05-25T20:47:48.753Z,98154.44
2023-05-25T20:50:16.992Z,98165.19
2023-05-25T20:52:47.291Z,98163.91
2023-05-25T20:55:15.735Z,98170.34
2023-05-25T20:57:43.596Z,98166.72
2023-05-25T21:00:16.750Z,98180.38
2023-05-25T21:02:45.154Z,98186.78
2023-05-25T21:05:13.712Z,98185.09
2023-05-25T21:07:41.591Z,98183.81
2023-05-25T21:10:10.864Z,98179.66
2023-05-25T21:12:38.973Z,98162.72
2023-05-25T21:15:10.408Z,98173.09
2023-05-25T21:17:39.622Z,98169.16
2023-05-25T21:20:08.318Z,98174.50
2023-05-25T21:22:37.452Z,98169.91
2023-05-25T21:25:06.836Z,98172.22
2023-05-25T21:27:34.660Z,98182.97
2023-05-25T21:30:02.538Z,98184.13
2023-05-25T21:32:31.427Z,98185.06
2023-05-25T21:35:00.758Z,98184.69
2023-05-25T21:37:29.126Z,98198.91
2023-05-25T21:39:57.229Z,98190.19
2023-05-25T21:42:25.003Z,98192.97
2023-05-25T21:44:52.849Z,98196.06
2023-05-25T21:47:20.914Z,98194.59
2023-05-25T21:49:50.037Z,98198.63
2023-05-25T21:52:19.521Z,98194.00
2023-05-25T21:54:47.552Z,98198.16
2023-05-25T21:57:15.392Z,98191.75
2023-05-25T21:59:43.438Z,98204.69
2023-05-25T22:02:11.360Z,98198.16
2023-05-25T22:04:39.438Z,98208.25
2023-05-25T22:07:07.238Z,98194.00
2023-05-25T22:09:36.426Z,98201.91
2023-05-25T22:12:04.523Z,98204.91
2023-05-25T22:14:32.682Z,98192.22
2023-05-25T22:17:01.062Z,98201.09
2023-05-25T22:19:28.944Z,98208.34
2023-05-25T22:21:59.567Z,98191.50
2023-05-25T22:24:27.541Z,98210.50
2023-05-25T22:26:57.292Z,98184.81
2023-05-25T22:29:25.966Z,98195.28
2023-05-25T22:31:56.876Z,98208.47
2023-05-25T22:34:25.138Z,98199.41
2023-05-25T22:36:54.108Z,98209.09
2023-05-25T22:39:21.977Z,98209.09
2023-05-25T22:41:49.992Z,98197.78
2023-05-25T22:44:19.590Z,98201.44
2023-05-25T22:46:47.590Z,98180.38
2023-05-25T22:49:16.065Z,98205.78
2023-05-25T22:51:44.603Z,98199.06
2023-05-25T22:54:15.714Z,98214.03
2023-05-25T22:56:44.359Z,98210.34
2023-05-25T22:59:12.829Z,98218.75
2023-05-25T23:01:45.191Z,98216.09
2023-05-25T23:04:16.121Z,98214.56
2023-05-25T23:06:44.379Z,98196.66
2023-05-25T23:09:12.947Z,98206.50
2023-05-25T23:11:41.011Z,98201.50
2023-05-25T23:14:10.681Z,98199.72
2023-05-25T23:16:38.948Z,98214.75
2023-05-25T23:19:08.360Z,98211.19
2023-05-25T23:21:36.221Z,98187.31
2023-05-25T23:24:04.412Z,98214.59
2023-05-25T23:26:32.741Z,98213.56
2023-05-25T23:29:01.241Z,98214.59
2023-05-25T23:31:29.565Z,98213.25
2023-05-25T23:33:57.378Z,98218.66
2023-05-25T23:36:28.332Z,98216.31
2023-05-25T23:38:57.319Z,98207.28
2023-05-25T23:41:25.564Z,98175.16
2023-05-25T23:43:53.459Z,98200.56
2023-05-25T23:46:21.552Z,98217.66
2023-05-25T23:48:50.362Z,98192.91
2023-05-25T23:51:18.457Z,98215.78
2023-05-25T23:53:48.438Z,98191.66
2023-05-25T23:56:16.319Z,98223.28
2023-05-25T23:58:44.565Z,98217.91
